Leonardo Viera

Olheiro - Wanderers
3 Dez 2028
Domingo
Processo

Personalidade

Adaptabilidade (13) Ambição (19) Controvérsia (1) Lealdade (16) Pressão (9) Profissionalismo (20) Espírito Esportivo (3) Temperamento (5)

Perfil

Estilo de Treinamento Democrático
Licença Continental Pro
Determinação 12
Gestão de Pessoas 12
Motivação 4
Disciplina 11
Satisfação no Trabalho
100%
Fadiga
0%
Função Olheiro
Salário 41.1K p/s
Contrato 14.03.2029

Desempenho

Comportamento Bom
Eficácia do Treinamento
41%
Desenvolvimento do Jogador
35%
Prevenção de Lesões
30%
Implementação Tática
50%

Eventos Recentes

Participou de uma reunião de recrutamento agora
Recomendou um alvo de transferência agora
Recomendou um alvo de transferência agora
Recomendou um alvo de transferência agora
Recomendou um alvo de transferência agora
Recomendou um alvo de transferência 7d atrás
Recomendou um alvo de transferência 7d atrás
Recomendou um alvo de transferência 7d atrás

Monitorando agora

108
Jogador Clube Status Habilidade Confiança Observado Última observação Último voto
Andrija Bulatović Chamois Niortais Ativo 128 / 124 40% 1 30.11.2028 -
Miguel Figueiredo Benfica Ativo 118 / 138 40% 1 30.11.2028 -
Davinchi Getafe Ativo 135 / 118 40% 1 30.11.2028 -
Diego Méndez Tacuarembo Ativo 99 / 99 30% 1 / 1m 26.07.2028 -
Jerónimo Buosi Rampla Juniors Ativo 94 / 99 30% 1 / 1m 26.07.2028 -
Ayden Heaven Portsmouth Ativo 150 / 156 40% 5 31.05.2028 -
Kamaldeen Atiemo Wa All Stars Ativo 100 / 114 40% 1 31.05.2028 -
Andrea Cogoni Cosenza Ativo 110 / 106 40% 1 31.05.2028 -
Celías Ingenthron Platense Ativo 112 / 125 40% 4 30.05.2028 -
Trey Nyoni Rotherham United Ativo 149 / 156 40% 3 30.05.2028 -
Jorthy Mokio ADO Den Haag Ativo 137 / 126 40% 2 30.05.2028 -
Fabián Correa Barranquilla Ativo 84 / 99 40% 2 25.05.2028 -
Kiani Inge Groningen Ativo 105 / 107 40% 1 25.05.2028 -
Tyler Fletcher Rotherham United Ativo 108 / 123 40% 2 23.05.2028 -
Christos Mouzakitis Hull City Ativo 128 / 152 40% 3 23.05.2028 -
Felipe Varela Trujillanos Ativo 95 / 104 40% 1 23.05.2028 -
Mahmoud El Shenawy Masr El Makasa Ativo 73 / 68 40% 1 22.05.2028 -
Andrey Ivlev Nizhniy Novgorod Ativo 111 / 118 40% 1 22.05.2028 -
Alejandro Almaraz NK Celje Ativo 114 / 106 40% 3 19.05.2028 -
Daniel Banjaqui Benfica Ativo 127 / 121 40% 2 17.05.2028 -
Enzo Acosta Tacuarembo Ativo 83 / 86 30% 1 / 1m 17.05.2028 -
Joaquín Muñoz Rampla Juniors Ativo 91 / 94 30% 1 / 1m 17.05.2028 -
Khama Mabunda Platinum Stars Ativo 91 / 89 40% 1 17.05.2028 -
Bernardo Lima Porto Ativo 112 / 122 40% 1 17.05.2028 -
Kirill Kistenev Botev Vratsa Ativo 93 / 108 40% 1 16.05.2028 -
Federico Matarán Giana Erminio Ativo 110 / 103 40% 1 15.05.2028 -
Josh Nichols Oldham Athletic Ativo 130 / 117 40% 2 13.05.2028 -
Abubakar Adams Aduana Stars Ativo 84 / 103 40% 3 13.05.2028 -
Jan Bürger Northampton Town Ativo 120 / 138 40% 2 08.05.2028 -
Nazareno Roselli Defensa y Justicia Ativo 111 / 115 40% 4 05.05.2028 -
Amine Boukamir Charleroi Ativo 94 / 123 40% 1 04.05.2028 -
Gael Moreno Morelia Ativo 72 / 71 40% 4 03.05.2028 -
Nicolás Sosa La Luz Ativo 94 / 97 30% 1 / 1m 15.03.2028 -
Juan Manuel Villalba Tigre Ativo 113 / 119 40% 1 16.01.2028 -
Lucas Nicol Mjondalen Ativo 86 / 80 40% 2 11.01.2028 -
Máximo Munarriz San Telmo Ativo 99 / 106 40% 3 08.01.2028 -
Agustín Obregón River Plate Ativo 113 / 126 40% 1 06.01.2028 -
Victor Hernandez Santa Fe Ativo 124 / 132 40% 13 05.01.2028 -
Hugo Rojas Instituto Ativo 106 / 117 40% 2 03.01.2028 -
Honest Ahanor Atalanta Ativo 140 / 147 40% 4 03.01.2028 -
Tobias Mohr Farense Ativo 117 / 117 68% 1 01.12.2027 Aprovar
Joel Ezra Enyimba Ativo 103 / 105 40% 4 30.11.2027 -
Jonny Shore New York City Ativo 105 / 103 40% 3 30.11.2027 -
Jan Cedilnik Chikhura Ativo 88 / 101 40% 3 30.11.2027 -
Hosea Michael Remo Stars Ativo 82 / 79 40% 5 27.11.2027 -
Joelson Gamarra General Caballero Ativo 70 / 83 40% 4 25.11.2027 -
Francisco Machis Llaneros Ativo 88 / 97 40% 7 24.11.2027 -
Gideon Manaseh Ikorodu City Ativo 95 / 92 40% 3 24.11.2027 -
Agustín Medina Lanús Ativo 112 / 123 40% 2 19.11.2027 -
Ivan Borges Defensores Ativo 86 / 86 40% 5 16.11.2027 -
Onyeuche Ujunwa Ikorodu City Ativo 81 / 88 40% 3 16.11.2027 -
Idriss Ashiru Kariobangi Sharks Ativo 77 / 79 40% 2 14.11.2027 -
Lucas Camejo River Plate Ativo 80 / 99 40% 4 11.11.2027 -
Halam Loboa Sevilla Ativo 117 / 128 40% 1 11.11.2027 -
Josh Acheampong Everton Ativo 146 / 138 40% 2 10.11.2027 -
Daniel Idoko Ikorodu City Ativo 91 / 92 40% 2 09.11.2027 -
Luciano Posadas Central Córdoba SdE Ativo 87 / 97 40% 2 08.11.2027 -
Timoteo Chamorro Talleres Ativo 107 / 107 40% 1 08.11.2027 -
Colin Guske Orlando City Ativo 91 / 103 40% 3 05.11.2027 -
Ignacio Fernández Boston River Ativo 86 / 111 40% 2 03.11.2027 -
Toheeb Adebayo Shooting Stars Ativo 83 / 87 40% 2 31.10.2027 -
Ignacio Ovando Rosario Central Ativo 111 / 110 40% 1 31.10.2027 -
Kevin Otiende Nairobi United Ativo 71 / 82 40% 2 30.10.2027 -
Ignacio Pérez Universidad Catolica Ativo 97 / 96 40% 2 28.10.2027 -
Ángel Aguayo Sol de America Ativo 98 / 89 40% 3 24.10.2027 -
Santiago Colidio Liepaja Ativo 86 / 90 40% 4 21.10.2027 -
Ulises Giménez River Plate Ativo 114 / 120 40% 1 21.10.2027 -
Alan Valdelamar Independiente Medellin Ativo 87 / 94 40% 1 19.10.2027 -
Andres Casseres Llaneros Ativo 68 / 67 40% 1 18.10.2027 -
Godwin Oham Warri Wolves Ativo 84 / 87 40% 3 05.10.2027 -
Adrian Skogmar Malmo FF Ativo 114 / 136 40% 1 04.10.2027 -
Mohamed Bolivar Barranquilla Ativo 90 / 100 40% 2 01.10.2027 -
Issa Yusuf Shooting Stars Ativo 87 / 103 40% 5 01.10.2027 -
Matias Siltanen Malmo FF Ativo 122 / 130 40% 1 26.09.2027 -
Juan Camilo Córdoba Deportivo Pereira Ativo 80 / 88 40% 1 26.09.2027 -
Esteban de Lima Tacuarembo Ativo 95 / 103 40% 4 25.09.2027 -
Alejandro Leiva Patronato Ativo 101 / 111 40% 1 23.09.2027 -
Nicolas Restrepo Leones Ativo 87 / 85 40% 2 20.09.2027 -
Mohamed Moussa Koïta Mathare United Ativo 97 / 99 40% 1 20.09.2027 -
Óscar Hinojosa Metropolitanos Ativo 87 / 76 40% 3 18.09.2027 -
Archie Gray Southampton Ativo 146 / 165 40% 1 08.09.2027 -
Juan Diego Perdomo Depor Ativo 91 / 87 40% 2 06.09.2027 -
Matías Canedo Rampla Juniors Ativo 77 / 99 40% 1 06.09.2027 -
Diego Vargas Universidad de Concepcion Ativo 95 / 90 40% 3 04.09.2027 -
Mauro Carrizo Atlético Tucumán Ativo 100 / 102 40% 1 03.09.2027 -
David Damboama El-Kanemi Warriors Ativo 88 / 106 40% 1 29.08.2027 -
Chibueze Oputa Rangers International Ativo 84 / 85 40% 1 23.08.2027 -
Mpho Khethang FC Diarra Ativo 79 / 75 40% 1 22.08.2027 -
Matías Magdaleno Estudiantes Ativo 105 / 105 40% 1 21.08.2027 -
Nicolás Blanco San Lorenzo Ativo 104 / 103 40% 1 17.08.2027 -
Sascha Britschgi AC Milan Ativo 131 / 131 40% 1 08.08.2027 -
Gady Beyuku Blackburn Rovers Ativo 124 / 116 40% 1 07.08.2027 -
Charlie Gray Fleetwood Town Ativo 94 / 90 40% 1 07.08.2027 -
Jenson Jones Walsall Ativo 97 / 96 40% 2 06.08.2027 -
Eliás Montiel Borussia Dortmund Ativo 145 / 148 40% 1 05.08.2027 -
Chari Giwa US Bougouni Ativo 69 / 96 40% 1 05.08.2027 -
Riley Owen Stevenage Ativo 97 / 118 40% 1 04.08.2027 -
Joe Johnson Luton Town Ativo 101 / 112 40% 1 03.08.2027 -
Matías Espíndola Deportivo Maldonado Ativo 116 / 119 42% 1 / 1m 28.07.2027 -
Rodrigo Pastorini Artigas Ativo 95 / 93 72% 1 12.07.2027 Aprovar
Juan Moreno La Luz Ativo 112 / 125 40% 1 05.07.2027 -
Francisco Salerno Defensores Unidos Ativo 116 / 117 40% 1 05.07.2027 -
Facundo Barreto Cerrito Ativo 99 / 88 72% 1 06.06.2027 Aprovar
Sampson Dweh Mallorca Ativo 133 / 134 66% 1 01.06.2027 Aprovar
Diego Segovia Independiente Ativo 116 / 116 30% 1 / 1m 19.05.2027 -
Gastón Ramírez Ativo 113 / 113 30% 1 / 1m 19.05.2027 -
Lucas Rodríguez Albion Ativo 128 / 128 52% 1 / 1m 17.03.2027 -
Leandro Méndez Colon Ativo 110 / 101 69% 1 21.12.2026 Aprovar